Macuru Arrow — C6YH3 — position and weather

sailwx.info

Track history (hours):
 
Tides and Currents Weather Stations Pressure Air Temp Water Temp Dewpoint Dewpoint Depression Visibility Wind Speed Wind Dir Waves Ship Positions

Macuru Arrow

Last reported at 2014-Nov-27 18:31 UTC. Time now 2014-Nov-27 19:35 UTC.
Position N 31°46' E 120°57'.

Length 225 m; draft 10.2 m.

Type: Cargo ship. MMSI: 311032500.

Date/timePositionNaut miles runAvg speedWind from/ knotsBaromVisibWave heightAir tempDewpointWater temp
2014-Nov-27 18:31N 31°46' E 120°57'0 0.0
2014-Nov-27 17:25N 31°46' E 120°57'0 0.0
2014-Nov-27 16:31N 31°46' E 120°57'0 0.0
2014-Nov-27 15:31N 31°46' E 120°57'0 0.0
2014-Nov-27 14:31N 31°46' E 120°57'0 0.0
2014-Nov-27 13:28N 31°46' E 120°57'0 0.0
2014-Nov-27 12:28N 31°46' E 120°57'0 0.0
2014-Nov-27 11:28N 31°46' E 120°57'0 0.0
2014-Nov-27 10:31N 31°46' E 120°57'0 0.0
2014-Nov-27 09:31N 31°46' E 120°57'0 0.0
2014-Nov-27 08:28N 31°46' E 120°57'0 0.0
2014-Nov-27 07:31N 31°46' E 120°57'0 0.0
2014-Nov-27 06:22N 31°46' E 120°57'0 0.0
2014-Nov-27 05:16N 31°46' E 120°57'0 0.0
2014-Nov-27 04:31N 31°46' E 120°57'0 0.0
2014-Nov-27 03:31N 31°46' E 120°57'0 0.0
2014-Nov-27 02:31N 31°46' E 120°57'0 0.0
2014-Nov-27 01:31N 31°46' E 120°57'0 0.0
2014-Nov-27 00:28N 31°46' E 120°57'0 0.0
2014-Nov-26 23:28N 31°46' E 120°57'0 0.0
2014-Nov-26 22:31N 31°46' E 120°57'0 0.0
2014-Nov-26 21:19N 31°46' E 120°57'0 0.0
2014-Nov-26 20:31N 31°46' E 120°57'0 0.0
2014-Nov-26 19:31N 31°46' E 120°57'0 0.0
2014-Nov-26 18:31N 31°46' E 120°57'0 0.0
2014-Nov-26 17:31N 31°46' E 120°57'0 0.0
2014-Nov-26 16:31N 31°46' E 120°57'0 0.0
2014-Nov-26 15:31N 31°46' E 120°57'0 0.0
2014-Nov-26 14:31N 31°46' E 120°57'0 0.0
2014-Nov-26 13:31N 31°46' E 120°57'0 0.0
2014-Nov-26 12:25N 31°46' E 120°57'0 0.0
2014-Nov-26 11:31N 31°46' E 120°57'0 0.0
2014-Nov-26 10:28N 31°46' E 120°57'0 0.0
2014-Nov-26 09:31N 31°46' E 120°57'0 0.0
2014-Nov-26 08:31N 31°46' E 120°57'0 0.0
2014-Nov-26 07:28N 31°46' E 120°57'0 0.0
2014-Nov-26 06:31N 31°46' E 120°57'0 0.0
2014-Nov-26 05:28N 31°46' E 120°57'0 0.0
2014-Nov-26 04:28N 31°46' E 120°57'0 0.0
2014-Nov-26 03:31N 31°46' E 120°57'0 0.0
2014-Nov-26 02:31N 31°46' E 120°57'0 0.0
2014-Nov-26 01:16N 31°46' E 120°57'0 0.0
2014-Nov-26 00:31N 31°46' E 120°57'0 0.0
2014-Nov-25 23:31N 31°46' E 120°57'0 0.0
2014-Nov-25 22:31N 31°46' E 120°57'0 0.0
2014-Nov-25 21:31N 31°46' E 120°57'0 0.0
2014-Nov-25 20:31N 31°46' E 120°57'0 0.0
2014-Nov-25 19:31N 31°46' E 120°57'0 0.0
2014-Nov-25 18:31N 31°46' E 120°57'0 0.0
2014-Nov-25 17:31N 31°46' E 120°57'0 0.0
2014-Nov-25 16:31N 31°46' E 120°57'0 0.0
2014-Nov-25 15:28N 31°46' E 120°57'0 0.0
2014-Nov-25 14:28N 31°46' E 120°57'0 0.0
2014-Nov-25 13:28N 31°46' E 120°57'0 0.0
2014-Nov-25 12:31N 31°46' E 120°57'0 0.0
2014-Nov-25 11:28N 31°46' E 120°57'0 0.0
2014-Nov-25 10:31N 31°46' E 120°57'0 0.0
2014-Nov-25 09:31N 31°46' E 120°57'0 0.0
2014-Nov-25 08:34N 31°46' E 120°57'0 0.0
2014-Nov-25 07:28N 31°46' E 120°57'0 0.0
2014-Nov-25 06:28N 31°46' E 120°57'0 0.0
2014-Nov-25 05:28N 31°46' E 120°57'0 0.0
2014-Nov-25 04:33N 31°46' E 120°57'5 4.5
2014-Nov-25 03:33N 31°47' E 121°02'0 0.5
2014-Nov-25 02:33N 31°47' E 121°03'0 0.0
2014-Nov-25 01:24N 31°47' E 121°03'0 0.0
2014-Nov-25 00:33N 31°47' E 121°03'0 0.0
2014-Nov-24 23:27N 31°47' E 121°03'0 0.1
2014-Nov-24 22:28N 31°47' E 121°02'7 7.6
2014-Nov-24 21:33N 31°42' E 121°09'9 9.5
2014-Nov-24 20:33N 31°36' E 121°17'8 7.9
2014-Nov-24 19:33N 31°30' E 121°23'0 0.1
2014-Nov-24 18:33N 31°30' E 121°23'0 0.0
2014-Nov-24 17:33N 31°30' E 121°23'0 0.0
2014-Nov-24 16:33N 31°30' E 121°23'0 0.0
2014-Nov-24 15:33N 31°30' E 121°23'0 0.0
2014-Nov-24 14:33N 31°30' E 121°23'0 0.0
2014-Nov-24 13:33N 31°30' E 121°23'0 0.0
2014-Nov-24 12:33N 31°30' E 121°23'0 0.0
2014-Nov-24 11:33N 31°30' E 121°23'0 0.0
2014-Nov-24 10:33N 31°30' E 121°23'0 0.0
2014-Nov-24 09:33N 31°30' E 121°23'0 0.0
2014-Nov-24 08:33N 31°30' E 121°23'0 0.0
2014-Nov-24 07:33N 31°30' E 121°23'0 0.0
2014-Nov-24 06:33N 31°30' E 121°23'0 0.0
2014-Nov-24 05:33N 31°30' E 121°23'0 0.0
2014-Nov-24 04:33N 31°30' E 121°23'0 0.0
2014-Nov-24 03:33N 31°30' E 121°23'0 0.0
2014-Nov-24 02:33N 31°30' E 121°23'0 0.0
2014-Nov-24 01:33N 31°30' E 121°23'0 0.0
2014-Nov-24 00:33N 31°30' E 121°23'0 0.0
2014-Nov-23 23:33N 31°30' E 121°23'0 0.0
2014-Nov-23 22:33N 31°30' E 121°23'0 0.0
2014-Nov-23 21:33N 31°30' E 121°23'0 0.0
2014-Nov-23 20:33N 31°30' E 121°23'1 0.7
2014-Nov-23 19:33N 31°30' E 121°23'9 8.9
2014-Nov-23 18:33N 31°25' E 121°32'8 8.0
2014-Nov-23 17:34N 31°21' E 121°40'7 7.5
2014-Nov-23 16:34N 31°18' E 121°48'9 8.7
2014-Nov-23 15:34N 31°15' E 121°58'9 8.6
2014-Nov-23 14:33N 31°13' E 122°08'9 8.9
2014-Nov-23 13:34N 31°08' E 122°16'1010.1
2014-Nov-23 12:33N 31°07' E 122°28'16 1.4
2014-Nov-23 01:08N 31°07' E 122°47'0 0.1
2014-Nov-23 00:26N 31°07' E 122°47'0 0.2
2014-Nov-22 23:23N 31°07' E 122°47'0 0.1
2014-Nov-22 22:23N 31°07' E 122°47'0 0.1
2014-Nov-22 21:05N 31°07' E 122°47'0 0.1
2014-Nov-22 20:26N 31°07' E 122°47'0 0.0
2014-Nov-22 10:33N 31°07' E 122°47'51911.5
2014-Nov-20 13:17N 22°48' E 120°05'913.1
2014-Nov-20 12:33N 22°40' E 120°10'1010.1
2014-Nov-20 11:34N 22°33' E 120°18'1 1.4
2014-Nov-20 10:34N 22°34' E 120°18'0 0.0
2014-Nov-20 09:32N 22°34' E 120°18'0 0.0
2014-Nov-20 08:32N 22°34' E 120°18'0 0.0
2014-Nov-20 07:32N 22°34' E 120°18'0 0.0
2014-Nov-20 06:26N 22°34' E 120°18'0 0.0
2014-Nov-20 05:32N 22°34' E 120°18'0 0.0
2014-Nov-20 04:32N 22°34' E 120°18'0 0.0
2014-Nov-20 03:26N 22°34' E 120°18'0 0.0
2014-Nov-20 02:32N 22°34' E 120°18'0 0.0
2014-Nov-20 01:32N 22°34' E 120°18'0 0.0
2014-Nov-20 00:20N 22°34' E 120°18'0 0.0
2014-Nov-19 23:32N 22°34' E 120°18'0 0.0
2014-Nov-19 22:26N 22°34' E 120°18'0 0.0
2014-Nov-19 21:26N 22°34' E 120°18'0 0.0
2014-Nov-19 20:32N 22°34' E 120°18'0 0.0
2014-Nov-19 19:32N 22°34' E 120°18'0 0.0
2014-Nov-19 18:32N 22°34' E 120°18'0 0.0
2014-Nov-19 17:32N 22°34' E 120°18'0 0.0
2014-Nov-19 16:32N 22°34' E 120°18'0 0.0
2014-Nov-19 15:32N 22°34' E 120°18'0 0.0
2014-Nov-19 14:32N 22°34' E 120°18'0 0.0
2014-Nov-19 13:32N 22°34' E 120°18'0 0.0
2014-Nov-19 12:20N 22°34' E 120°18'0 0.0
2014-Nov-19 11:33N 22°34' E 120°18'2 2.2
2014-Nov-19 10:33N 22°33' E 120°17'6 5.8
2014-Nov-19 09:33N 22°31' E 120°11'8 7.5
2014-Nov-19 08:33N 22°30' E 120°03'7 6.6
2014-Nov-19 07:29N 22°28' E 119°55'12510.5
2014-Nov-18 19:33N 24°02' E 118°25'1111.2
2014-Nov-18 18:32N 24°12' E 118°18'10 9.9
2014-Nov-18 17:31N 24°19' E 118°11'9 9.6
2014-Nov-18 16:33N 24°26' E 118°03'6 5.8
2014-Nov-18 15:30N 24°32' E 118°05'0 0.1
2014-Nov-18 14:33N 24°32' E 118°05'0 0.0
2014-Nov-18 13:27N 24°32' E 118°05'0 0.0
2014-Nov-18 12:27N 24°32' E 118°05'0 0.0
2014-Nov-18 09:27N 24°32' E 118°05'0 0.0
2014-Nov-18 08:27N 24°32' E 118°05'0 0.0
2014-Nov-18 07:21N 24°32' E 118°05'0 0.0
2014-Nov-18 02:33N 24°32' E 118°05'0 0.0
2014-Nov-18 01:33N 24°32' E 118°05'0 0.0
2014-Nov-18 00:15N 24°32' E 118°05'0 0.0
2014-Nov-17 23:27N 24°32' E 118°05'0 0.0
2014-Nov-17 21:33N 24°32' E 118°05'0 0.0
2014-Nov-17 20:27N 24°32' E 118°05'0 0.0
2014-Nov-17 19:24N 24°32' E 118°05'  
Track history (hours):
 
Tides and Currents Weather Stations Pressure Air Temp Water Temp Dewpoint Dewpoint Depression Visibility Wind Speed Wind Dir Waves Ship Positions

Macuru Arrow

Last reported at 2014-Nov-27 18:31 UTC. Time now 2014-Nov-27 19:35 UTC.
Position N 31°46' E 120°57'.

Length 225 m; draft 10.2 m.

Type: Cargo ship. MMSI: 311032500.

Date/timePositionNaut miles runAvg speedWind from/ knotsBaromVisibWave heightAir tempDewpointWater temp
2014-Nov-27 18:31N 31°46' E 120°57'0 0.0
2014-Nov-27 17:25N 31°46' E 120°57'0 0.0
2014-Nov-27 16:31N 31°46' E 120°57'0 0.0
2014-Nov-27 15:31N 31°46' E 120°57'0 0.0
2014-Nov-27 14:31N 31°46' E 120°57'0 0.0
2014-Nov-27 13:28N 31°46' E 120°57'0 0.0
2014-Nov-27 12:28N 31°46' E 120°57'0 0.0
2014-Nov-27 11:28N 31°46' E 120°57'0 0.0
2014-Nov-27 10:31N 31°46' E 120°57'0 0.0
2014-Nov-27 09:31N 31°46' E 120°57'0 0.0
2014-Nov-27 08:28N 31°46' E 120°57'0 0.0
2014-Nov-27 07:31N 31°46' E 120°57'0 0.0
2014-Nov-27 06:22N 31°46' E 120°57'0 0.0
2014-Nov-27 05:16N 31°46' E 120°57'0 0.0
2014-Nov-27 04:31N 31°46' E 120°57'0 0.0
2014-Nov-27 03:31N 31°46' E 120°57'0 0.0
2014-Nov-27 02:31N 31°46' E 120°57'0 0.0
2014-Nov-27 01:31N 31°46' E 120°57'0 0.0
2014-Nov-27 00:28N 31°46' E 120°57'0 0.0
2014-Nov-26 23:28N 31°46' E 120°57'0 0.0
2014-Nov-26 22:31N 31°46' E 120°57'0 0.0
2014-Nov-26 21:19N 31°46' E 120°57'0 0.0
2014-Nov-26 20:31N 31°46' E 120°57'0 0.0
2014-Nov-26 19:31N 31°46' E 120°57'0 0.0
2014-Nov-26 18:31N 31°46' E 120°57'0 0.0
2014-Nov-26 17:31N 31°46' E 120°57'0 0.0
2014-Nov-26 16:31N 31°46' E 120°57'0 0.0
2014-Nov-26 15:31N 31°46' E 120°57'0 0.0
2014-Nov-26 14:31N 31°46' E 120°57'0 0.0
2014-Nov-26 13:31N 31°46' E 120°57'0 0.0
2014-Nov-26 12:25N 31°46' E 120°57'0 0.0
2014-Nov-26 11:31N 31°46' E 120°57'0 0.0
2014-Nov-26 10:28N 31°46' E 120°57'0 0.0
2014-Nov-26 09:31N 31°46' E 120°57'0 0.0
2014-Nov-26 08:31N 31°46' E 120°57'0 0.0
2014-Nov-26 07:28N 31°46' E 120°57'0 0.0
2014-Nov-26 06:31N 31°46' E 120°57'0 0.0
2014-Nov-26 05:28N 31°46' E 120°57'0 0.0
2014-Nov-26 04:28N 31°46' E 120°57'0 0.0
2014-Nov-26 03:31N 31°46' E 120°57'0 0.0
2014-Nov-26 02:31N 31°46' E 120°57'0 0.0
2014-Nov-26 01:16N 31°46' E 120°57'0 0.0
2014-Nov-26 00:31N 31°46' E 120°57'0 0.0
2014-Nov-25 23:31N 31°46' E 120°57'0 0.0
2014-Nov-25 22:31N 31°46' E 120°57'0 0.0
2014-Nov-25 21:31N 31°46' E 120°57'0 0.0
2014-Nov-25 20:31N 31°46' E 120°57'0 0.0
2014-Nov-25 19:31N 31°46' E 120°57'0 0.0
2014-Nov-25 18:31N 31°46' E 120°57'0 0.0
2014-Nov-25 17:31N 31°46' E 120°57'0 0.0
2014-Nov-25 16:31N 31°46' E 120°57'0 0.0
2014-Nov-25 15:28N 31°46' E 120°57'0 0.0
2014-Nov-25 14:28N 31°46' E 120°57'0 0.0
2014-Nov-25 13:28N 31°46' E 120°57'0 0.0
2014-Nov-25 12:31N 31°46' E 120°57'0 0.0
2014-Nov-25 11:28N 31°46' E 120°57'0 0.0
2014-Nov-25 10:31N 31°46' E 120°57'0 0.0
2014-Nov-25 09:31N 31°46' E 120°57'0 0.0
2014-Nov-25 08:34N 31°46' E 120°57'0 0.0
2014-Nov-25 07:28N 31°46' E 120°57'0 0.0
2014-Nov-25 06:28N 31°46' E 120°57'0 0.0
2014-Nov-25 05:28N 31°46' E 120°57'0 0.0
2014-Nov-25 04:33N 31°46' E 120°57'5 4.5
2014-Nov-25 03:33N 31°47' E 121°02'0 0.5
2014-Nov-25 02:33N 31°47' E 121°03'0 0.0
2014-Nov-25 01:24N 31°47' E 121°03'0 0.0
2014-Nov-25 00:33N 31°47' E 121°03'0 0.0
2014-Nov-24 23:27N 31°47' E 121°03'0 0.1
2014-Nov-24 22:28N 31°47' E 121°02'7 7.6
2014-Nov-24 21:33N 31°42' E 121°09'9 9.5
2014-Nov-24 20:33N 31°36' E 121°17'8 7.9
2014-Nov-24 19:33N 31°30' E 121°23'0 0.1
2014-Nov-24 18:33N 31°30' E 121°23'0 0.0
2014-Nov-24 17:33N 31°30' E 121°23'0 0.0
2014-Nov-24 16:33N 31°30' E 121°23'0 0.0
2014-Nov-24 15:33N 31°30' E 121°23'0 0.0
2014-Nov-24 14:33N 31°30' E 121°23'0 0.0
2014-Nov-24 13:33N 31°30' E 121°23'0 0.0
2014-Nov-24 12:33N 31°30' E 121°23'0 0.0
2014-Nov-24 11:33N 31°30' E 121°23'0 0.0
2014-Nov-24 10:33N 31°30' E 121°23'0 0.0
2014-Nov-24 09:33N 31°30' E 121°23'0 0.0
2014-Nov-24 08:33N 31°30' E 121°23'0 0.0
2014-Nov-24 07:33N 31°30' E 121°23'0 0.0
2014-Nov-24 06:33N 31°30' E 121°23'0 0.0
2014-Nov-24 05:33N 31°30' E 121°23'0 0.0
2014-Nov-24 04:33N 31°30' E 121°23'0 0.0
2014-Nov-24 03:33N 31°30' E 121°23'0 0.0
2014-Nov-24 02:33N 31°30' E 121°23'0 0.0
2014-Nov-24 01:33N 31°30' E 121°23'0 0.0
2014-Nov-24 00:33N 31°30' E 121°23'0 0.0
2014-Nov-23 23:33N 31°30' E 121°23'0 0.0
2014-Nov-23 22:33N 31°30' E 121°23'0 0.0
2014-Nov-23 21:33N 31°30' E 121°23'0 0.0
2014-Nov-23 20:33N 31°30' E 121°23'1 0.7
2014-Nov-23 19:33N 31°30' E 121°23'9 8.9
2014-Nov-23 18:33N 31°25' E 121°32'8 8.0
2014-Nov-23 17:34N 31°21' E 121°40'7 7.5
2014-Nov-23 16:34N 31°18' E 121°48'9 8.7
2014-Nov-23 15:34N 31°15' E 121°58'9 8.6
2014-Nov-23 14:33N 31°13' E 122°08'9 8.9
2014-Nov-23 13:34N 31°08' E 122°16'1010.1
2014-Nov-23 12:33N 31°07' E 122°28'16 1.4
2014-Nov-23 01:08N 31°07' E 122°47'0 0.1
2014-Nov-23 00:26N 31°07' E 122°47'0 0.2
2014-Nov-22 23:23N 31°07' E 122°47'0 0.1
2014-Nov-22 22:23N 31°07' E 122°47'0 0.1
2014-Nov-22 21:05N 31°07' E 122°47'0 0.1
2014-Nov-22 20:26N 31°07' E 122°47'0 0.0
2014-Nov-22 10:33N 31°07' E 122°47'51911.5
2014-Nov-20 13:17N 22°48' E 120°05'913.1
2014-Nov-20 12:33N 22°40' E 120°10'1010.1
2014-Nov-20 11:34N 22°33' E 120°18'1 1.4
2014-Nov-20 10:34N 22°34' E 120°18'0 0.0
2014-Nov-20 09:32N 22°34' E 120°18'0 0.0
2014-Nov-20 08:32N 22°34' E 120°18'0 0.0
2014-Nov-20 07:32N 22°34' E 120°18'0 0.0
2014-Nov-20 06:26N 22°34' E 120°18'0 0.0
2014-Nov-20 05:32N 22°34' E 120°18'0 0.0
2014-Nov-20 04:32N 22°34' E 120°18'0 0.0
2014-Nov-20 03:26N 22°34' E 120°18'0 0.0
2014-Nov-20 02:32N 22°34' E 120°18'0 0.0
2014-Nov-20 01:32N 22°34' E 120°18'0 0.0
2014-Nov-20 00:20N 22°34' E 120°18'0 0.0
2014-Nov-19 23:32N 22°34' E 120°18'0 0.0
2014-Nov-19 22:26N 22°34' E 120°18'0 0.0
2014-Nov-19 21:26N 22°34' E 120°18'0 0.0
2014-Nov-19 20:32N 22°34' E 120°18'0 0.0
2014-Nov-19 19:32N 22°34' E 120°18'0 0.0
2014-Nov-19 18:32N 22°34' E 120°18'0 0.0
2014-Nov-19 17:32N 22°34' E 120°18'0 0.0
2014-Nov-19 16:32N 22°34' E 120°18'0 0.0
2014-Nov-19 15:32N 22°34' E 120°18'0 0.0
2014-Nov-19 14:32N 22°34' E 120°18'0 0.0
2014-Nov-19 13:32N 22°34' E 120°18'0 0.0
2014-Nov-19 12:20N 22°34' E 120°18'0 0.0
2014-Nov-19 11:33N 22°34' E 120°18'2 2.2
2014-Nov-19 10:33N 22°33' E 120°17'6 5.8
2014-Nov-19 09:33N 22°31' E 120°11'8 7.5
2014-Nov-19 08:33N 22°30' E 120°03'7 6.6
2014-Nov-19 07:29N 22°28' E 119°55'12510.5
2014-Nov-18 19:33N 24°02' E 118°25'1111.2
2014-Nov-18 18:32N 24°12' E 118°18'10 9.9
2014-Nov-18 17:31N 24°19' E 118°11'9 9.6
2014-Nov-18 16:33N 24°26' E 118°03'6 5.8
2014-Nov-18 15:30N 24°32' E 118°05'0 0.1
2014-Nov-18 14:33N 24°32' E 118°05'0 0.0
2014-Nov-18 13:27N 24°32' E 118°05'0 0.0
2014-Nov-18 12:27N 24°32' E 118°05'0 0.0
2014-Nov-18 09:27N 24°32' E 118°05'0 0.0
2014-Nov-18 08:27N 24°32' E 118°05'0 0.0
2014-Nov-18 07:21N 24°32' E 118°05'0 0.0
2014-Nov-18 02:33N 24°32' E 118°05'0 0.0
2014-Nov-18 01:33N 24°32' E 118°05'0 0.0
2014-Nov-18 00:15N 24°32' E 118°05'0 0.0
2014-Nov-17 23:27N 24°32' E 118°05'0 0.0
2014-Nov-17 21:33N 24°32' E 118°05'0 0.0
2014-Nov-17 20:27N 24°32' E 118°05'0 0.0
2014-Nov-17 19:24N 24°32' E 118°05'  

Dump ship's entire track history